createdAt,value
2019-01-11T00:00:50.661Z,92.10
2019-01-11T00:03:19.472Z,91.70
2019-01-11T00:05:47.923Z,90.64
2019-01-11T00:08:16.371Z,90.55
2019-01-11T00:10:44.757Z,90.05
2019-01-11T00:13:13.138Z,90.46
2019-01-11T00:15:41.531Z,90.48
2019-01-11T00:18:10.079Z,90.98
2019-01-11T00:20:38.468Z,90.98
2019-01-11T00:23:06.907Z,91.28
2019-01-11T00:25:35.364Z,92.59
2019-01-11T00:28:04.023Z,91.89
2019-01-11T00:30:32.644Z,91.96
2019-01-11T00:33:01.018Z,91.88
2019-01-11T00:35:29.409Z,91.76
2019-01-11T00:37:57.785Z,90.99
2019-01-11T00:40:26.399Z,90.77
2019-01-11T00:42:54.783Z,91.34
2019-01-11T00:45:23.164Z,90.64
2019-01-11T00:47:51.552Z,91.26
2019-01-11T00:50:21.698Z,90.48
2019-01-11T00:52:50.089Z,91.04
2019-01-11T00:55:18.513Z,91.30
2019-01-11T00:57:46.847Z,91.87
2019-01-11T01:00:18.665Z,92.46
2019-01-11T01:02:47.121Z,91.93
2019-01-11T01:05:15.680Z,91.33
2019-01-11T01:07:44.064Z,91.71
2019-01-11T01:10:12.508Z,92.32
2019-01-11T01:12:40.961Z,92.94
2019-01-11T01:15:11.351Z,91.41
2019-01-11T01:17:39.883Z,91.96
2019-01-11T01:20:13.895Z,91.50
2019-01-11T01:22:42.280Z,91.40
2019-01-11T01:25:11.777Z,91.63
2019-01-11T01:27:41.298Z,91.78
2019-01-11T01:30:15.507Z,91.14
2019-01-11T01:32:44.944Z,90.82
2019-01-11T01:35:13.461Z,90.23
2019-01-11T01:37:42.014Z,90.82
2019-01-11T01:40:13.598Z,91.08
2019-01-11T01:42:42.125Z,91.37
2019-01-11T01:45:15.978Z,91.92
2019-01-11T01:47:44.435Z,91.38
2019-01-11T01:50:13.452Z,92.19
2019-01-11T01:52:41.841Z,92.28
2019-01-11T01:55:12.325Z,91.48
2019-01-11T01:57:40.702Z,91.42
2019-01-11T02:00:12.450Z,91.62
2019-01-11T02:02:40.905Z,90.65
2019-01-11T02:05:10.036Z,92.08
2019-01-11T02:07:38.411Z,91.96
2019-01-11T02:10:09.739Z,91.43
2019-01-11T02:12:38.120Z,91.64
2019-01-11T02:15:07.944Z,91.60
2019-01-11T02:17:36.388Z,91.70
2019-01-11T02:20:13.754Z,91.56
2019-01-11T02:22:42.198Z,92.12
2019-01-11T02:25:10.722Z,90.97
2019-01-11T02:27:39.107Z,91.92
2019-01-11T02:30:13.528Z,90.84
2019-01-11T02:32:41.912Z,90.99
2019-01-11T02:35:10.477Z,90.58
2019-01-11T02:37:38.837Z,91.66
2019-01-11T02:40:09.563Z,91.82
2019-01-11T02:42:37.944Z,90.91
2019-01-11T02:45:09.467Z,91.09
2019-01-11T02:47:37.913Z,90.76
2019-01-11T02:50:08.734Z,91.26
2019-01-11T02:52:37.106Z,91.15
2019-01-11T02:55:07.118Z,91.18
2019-01-11T02:57:35.585Z,91.12
2019-01-11T03:00:16.054Z,91.82
2019-01-11T03:02:44.453Z,91.54
2019-01-11T03:05:14.076Z,91.92
2019-01-11T03:07:42.796Z,91.59
2019-01-11T03:10:16.060Z,91.18
2019-01-11T03:12:44.444Z,91.23
2019-01-11T03:15:13.665Z,92.27
2019-01-11T03:17:42.125Z,92.47
2019-01-11T03:20:12.860Z,92.69
2019-01-11T03:22:41.311Z,92.18
2019-01-11T03:25:12.250Z,92.59
2019-01-11T03:27:40.757Z,93.15
2019-01-11T03:30:17.691Z,93.28
2019-01-11T03:32:46.135Z,94.11
2019-01-11T03:35:15.017Z,93.10
2019-01-11T03:37:44.341Z,93.57
2019-01-11T03:40:14.948Z,92.80
2019-01-11T03:42:43.570Z,93.25
2019-01-11T03:45:14.477Z,92.29
2019-01-11T03:47:43.026Z,90.74
2019-01-11T03:50:14.129Z,91.99
2019-01-11T03:52:42.580Z,92.00
2019-01-11T03:55:13.002Z,91.34
2019-01-11T03:57:41.404Z,92.39
2019-01-11T04:00:15.667Z,92.22
2019-01-11T04:02:45.103Z,93.57
2019-01-11T04:05:13.618Z,93.10
2019-01-11T04:07:42.253Z,92.61
2019-01-11T04:10:14.066Z,92.78
2019-01-11T04:12:42.518Z,92.93
2019-01-11T04:15:13.252Z,93.12
2019-01-11T04:17:41.631Z,93.87
2019-01-11T04:20:18.157Z,95.04
2019-01-11T04:22:48.316Z,96.32
2019-01-11T04:25:18.337Z,96.10
2019-01-11T04:27:46.708Z,95.77
2019-01-11T04:30:16.038Z,96.41
2019-01-11T04:32:44.412Z,96.57
2019-01-11T04:35:12.973Z,97.82
2019-01-11T04:37:41.352Z,96.58
2019-01-11T04:40:11.170Z,96.69
2019-01-11T04:42:39.548Z,96.94
2019-01-11T04:45:09.372Z,97.36
2019-01-11T04:47:37.754Z,97.69
2019-01-11T04:50:09.501Z,98.04
2019-01-11T04:52:38.202Z,97.71
2019-01-11T04:55:07.297Z,96.93
2019-01-11T04:57:35.741Z,96.48
2019-01-11T05:00:12.929Z,96.28
2019-01-11T05:02:41.485Z,96.10
2019-01-11T05:05:10.024Z,96.41
2019-01-11T05:07:38.411Z,96.54
2019-01-11T05:10:10.332Z,96.49
2019-01-11T05:12:38.723Z,97.38
2019-01-11T05:15:07.741Z,98.13
2019-01-11T05:17:36.117Z,98.60
2019-01-11T05:20:07.936Z,98.97
2019-01-11T05:22:36.331Z,99.39
2019-01-11T05:25:05.641Z,99.49
2019-01-11T05:27:34.029Z,100.00
2019-01-11T05:30:02.485Z,100.00
2019-01-11T05:32:30.869Z,100.00
2019-01-11T05:34:59.431Z,100.00
2019-01-11T05:37:27.829Z,100.00
2019-01-11T05:39:56.206Z,100.00
2019-01-11T05:42:25.560Z,100.00
2019-01-11T05:44:53.929Z,100.00
2019-01-11T05:47:24.247Z,100.00
2019-01-11T05:49:54.579Z,100.00
2019-01-11T05:52:22.949Z,100.00
2019-01-11T05:54:51.344Z,100.00
2019-01-11T05:57:19.723Z,100.00
2019-01-11T05:59:48.116Z,100.00
2019-01-11T06:02:16.494Z,100.00
2019-01-11T06:04:45.451Z,100.00
2019-01-11T06:07:18.421Z,100.00
2019-01-11T06:09:46.813Z,100.00
2019-01-11T06:12:15.199Z,100.00
2019-01-11T06:14:44.526Z,100.00
2019-01-11T06:17:13.081Z,100.00
2019-01-11T06:19:41.516Z,100.00
2019-01-11T06:22:09.896Z,100.00
2019-01-11T06:24:38.274Z,100.00
2019-01-11T06:27:06.797Z,100.00
2019-01-11T06:29:35.188Z,100.00
2019-01-11T06:32:03.646Z,100.00
2019-01-11T06:34:32.144Z,100.00
2019-01-11T06:37:00.534Z,100.00
2019-01-11T06:39:29.164Z,100.00
2019-01-11T06:41:59.197Z,100.00
2019-01-11T06:44:28.759Z,100.00
2019-01-11T06:46:57.151Z,100.00
2019-01-11T06:49:25.562Z,100.00
2019-01-11T06:51:54.321Z,100.00
2019-01-11T06:54:22.700Z,100.00
2019-01-11T06:56:51.086Z,100.00
2019-01-11T06:59:19.710Z,100.00
2019-01-11T07:01:48.128Z,100.00
2019-01-11T07:04:16.576Z,100.00
2019-01-11T07:06:44.956Z,100.00
2019-01-11T07:09:13.350Z,100.00
2019-01-11T07:11:41.738Z,100.00
2019-01-11T07:14:10.126Z,100.00
2019-01-11T07:16:38.597Z,100.00
2019-01-11T07:19:07.022Z,100.00
2019-01-11T07:21:35.408Z,100.00
2019-01-11T07:24:03.865Z,99.33
2019-01-11T07:26:32.322Z,99.55
2019-01-11T07:29:00.707Z,100.00
2019-01-11T07:31:29.253Z,100.00
2019-01-11T07:33:57.642Z,100.00
2019-01-11T07:36:29.351Z,100.00
2019-01-11T07:38:57.945Z,100.00
2019-01-11T07:41:26.406Z,100.00
2019-01-11T07:43:54.796Z,100.00
2019-01-11T07:46:23.224Z,100.00
2019-01-11T07:48:51.626Z,100.00
2019-01-11T07:51:21.202Z,100.00
2019-01-11T07:53:49.884Z,99.74
2019-01-11T07:56:18.272Z,100.00
2019-01-11T07:58:46.657Z,100.00
2019-01-11T08:01:15.214Z,100.00
2019-01-11T08:03:43.592Z,100.00
2019-01-11T08:06:12.077Z,100.00
2019-01-11T08:08:40.793Z,100.00
2019-01-11T08:11:09.306Z,100.00
2019-01-11T08:13:37.713Z,100.00
2019-01-11T08:16:06.359Z,100.00
2019-01-11T08:18:34.747Z,100.00
2019-01-11T08:21:03.434Z,100.00
2019-01-11T08:23:31.829Z,100.00
2019-01-11T08:26:00.273Z,99.93
2019-01-11T08:28:30.436Z,100.00
2019-01-11T08:30:58.809Z,100.00
2019-01-11T08:33:27.218Z,100.00
2019-01-11T08:35:55.589Z,100.00
2019-01-11T08:38:23.978Z,100.00
2019-01-11T08:40:52.882Z,100.00
2019-01-11T08:43:21.238Z,100.00
2019-01-11T08:45:49.625Z,100.00
2019-01-11T08:48:18.012Z,100.00
2019-01-11T08:50:46.969Z,100.00
2019-01-11T08:53:15.429Z,100.00
2019-01-11T08:55:43.807Z,100.00
2019-01-11T08:58:12.299Z,100.00
2019-01-11T09:00:40.971Z,100.00
2019-01-11T09:03:09.442Z,100.00
2019-01-11T09:05:37.837Z,100.00
2019-01-11T09:08:06.223Z,100.00
2019-01-11T09:10:34.700Z,100.00
2019-01-11T09:13:03.081Z,100.00
2019-01-11T09:15:31.699Z,100.00
2019-01-11T09:18:04.421Z,100.00
2019-01-11T09:20:32.824Z,100.00
2019-01-11T09:23:01.217Z,99.83
2019-01-11T09:25:29.586Z,100.00
2019-01-11T09:27:57.962Z,99.54
2019-01-11T09:30:26.354Z,100.00
2019-01-11T09:32:54.731Z,100.00
2019-01-11T09:35:23.128Z,100.00
2019-01-11T09:37:51.514Z,100.00
2019-01-11T09:40:19.896Z,100.00
2019-01-11T09:42:48.270Z,99.96
2019-01-11T09:45:16.724Z,100.00
2019-01-11T09:47:46.091Z,100.00
2019-01-11T09:50:14.508Z,100.00
2019-01-11T09:52:42.893Z,100.00
2019-01-11T09:55:11.411Z,100.00
2019-01-11T09:57:39.833Z,100.00
2019-01-11T10:00:14.045Z,100.00
2019-01-11T10:02:42.658Z,100.00
2019-01-11T10:05:11.412Z,100.00
2019-01-11T10:07:40.088Z,100.00
2019-01-11T10:10:12.114Z,100.00
2019-01-11T10:12:41.274Z,100.00
2019-01-11T10:15:11.817Z,100.00
2019-01-11T10:17:40.446Z,100.00
2019-01-11T10:20:12.557Z,100.00
2019-01-11T10:22:41.678Z,100.00
2019-01-11T10:25:11.097Z,100.00
2019-01-11T10:27:39.543Z,100.00
2019-01-11T10:30:13.443Z,100.00
2019-01-11T10:32:41.953Z,100.00
2019-01-11T10:35:11.910Z,100.00
2019-01-11T10:37:40.288Z,100.00
2019-01-11T10:40:11.415Z,100.00
2019-01-11T10:42:39.893Z,100.00
2019-01-11T10:45:14.078Z,100.00
2019-01-11T10:47:42.460Z,100.00
2019-01-11T10:50:13.786Z,100.00
2019-01-11T10:52:42.166Z,100.00
2019-01-11T10:55:12.488Z,100.00
2019-01-11T10:57:41.118Z,100.00
2019-01-11T11:00:15.153Z,100.00
2019-01-11T11:02:43.619Z,99.65
2019-01-11T11:05:12.058Z,99.89
2019-01-11T11:07:40.442Z,99.94
2019-01-11T11:10:10.849Z,99.64
2019-01-11T11:12:39.234Z,100.00
2019-01-11T11:15:11.582Z,100.00
2019-01-11T11:17:40.101Z,100.00
2019-01-11T11:20:13.472Z,100.00
2019-01-11T11:22:43.201Z,99.98
2019-01-11T11:25:14.694Z,100.00
2019-01-11T11:27:43.075Z,100.00
2019-01-11T11:30:14.021Z,100.00
2019-01-11T11:32:46.831Z,100.00
2019-01-11T11:35:15.215Z,100.00
2019-01-11T11:37:43.589Z,100.00
2019-01-11T11:40:12.105Z,100.00
2019-01-11T11:42:40.485Z,100.00
2019-01-11T11:45:08.945Z,100.00
2019-01-11T11:47:37.329Z,100.00
2019-01-11T11:50:08.926Z,100.00
2019-01-11T11:52:37.319Z,100.00
2019-01-11T11:55:08.051Z,100.00
2019-01-11T11:57:36.443Z,100.00
2019-01-11T12:00:16.785Z,100.00
2019-01-11T12:02:45.239Z,100.00
2019-01-11T12:05:13.803Z,100.00
2019-01-11T12:07:42.498Z,100.00
2019-01-11T12:10:13.249Z,100.00
2019-01-11T12:12:41.725Z,100.00
2019-01-11T12:15:11.863Z,100.00
2019-01-11T12:17:41.170Z,100.00
2019-01-11T12:20:16.411Z,100.00
2019-01-11T12:22:44.810Z,100.00
2019-01-11T12:25:13.249Z,100.00
2019-01-11T12:27:41.637Z,100.00
2019-01-11T12:30:13.656Z,100.00
2019-01-11T12:32:42.035Z,100.00
2019-01-11T12:35:10.430Z,100.00
2019-01-11T12:37:38.829Z,100.00
2019-01-11T12:40:10.362Z,100.00
2019-01-11T12:42:38.988Z,100.00
2019-01-11T12:45:13.116Z,100.00
2019-01-11T12:47:41.506Z,100.00
2019-01-11T12:50:12.920Z,100.00
2019-01-11T12:52:41.339Z,100.00
2019-01-11T12:55:09.830Z,100.00
2019-01-11T12:57:38.211Z,100.00
2019-01-11T13:00:12.254Z,100.00
2019-01-11T13:02:40.631Z,100.00
2019-01-11T13:05:11.186Z,100.00
2019-01-11T13:07:39.630Z,100.00
2019-01-11T13:10:11.123Z,100.00
2019-01-11T13:12:39.514Z,100.00
2019-01-11T13:15:11.234Z,100.00
2019-01-11T13:17:39.634Z,100.00
2019-01-11T13:20:13.399Z,99.69
2019-01-11T13:22:41.793Z,100.00
2019-01-11T13:25:10.319Z,99.85
2019-01-11T13:27:38.715Z,99.48
2019-01-11T13:30:12.532Z,99.79
2019-01-11T13:32:40.994Z,99.61
2019-01-11T13:35:09.805Z,100.00
2019-01-11T13:37:38.185Z,99.79
2019-01-11T13:40:21.120Z,100.00
2019-01-11T13:42:49.780Z,100.00
2019-01-11T13:45:18.310Z,99.96
2019-01-11T13:47:46.758Z,100.00
2019-01-11T13:50:18.200Z,100.00
2019-01-11T13:52:46.576Z,100.00
2019-01-11T13:55:14.960Z,100.00
2019-01-11T13:57:43.360Z,100.00
2019-01-11T14:00:14.730Z,100.00
2019-01-11T14:02:43.156Z,100.00
2019-01-11T14:05:11.689Z,99.86
2019-01-11T14:07:40.144Z,100.00
2019-01-11T14:10:08.601Z,100.00
2019-01-11T14:12:36.981Z,100.00
2019-01-11T14:15:08.015Z,100.00
2019-01-11T14:17:36.393Z,100.00
2019-01-11T14:20:07.230Z,100.00
2019-01-11T14:22:35.615Z,100.00
2019-01-11T14:25:05.674Z,100.00
2019-01-11T14:27:34.074Z,100.00
2019-01-11T14:30:02.517Z,100.00
2019-01-11T14:32:31.141Z,100.00
2019-01-11T14:34:59.534Z,100.00
2019-01-11T14:37:32.269Z,100.00
2019-01-11T14:39:58.027Z,100.00
2019-01-11T14:42:26.428Z,100.00
2019-01-11T14:44:54.806Z,100.00
2019-01-11T14:47:23.202Z,100.00
2019-01-11T14:49:51.593Z,100.00
2019-01-11T14:52:20.507Z,100.00
2019-01-11T14:54:48.958Z,100.00
2019-01-11T14:57:17.338Z,100.00
2019-01-11T14:59:45.723Z,100.00
2019-01-11T15:02:14.105Z,100.00
2019-01-11T15:04:42.501Z,100.00
2019-01-11T15:07:10.885Z,100.00
2019-01-11T15:09:39.287Z,100.00
2019-01-11T15:12:07.673Z,100.00
2019-01-11T15:14:36.081Z,100.00
2019-01-11T15:17:04.454Z,100.00
2019-01-11T15:19:33.132Z,100.00
2019-01-11T15:22:03.517Z,100.00
2019-01-11T15:24:31.909Z,100.00
2019-01-11T15:27:00.300Z,100.00
2019-01-11T15:29:28.681Z,100.00
2019-01-11T15:31:57.299Z,100.00
2019-01-11T15:34:25.675Z,100.00
2019-01-11T15:36:54.065Z,100.00
2019-01-11T15:39:22.447Z,100.00
2019-01-11T15:41:50.837Z,100.00
2019-01-11T15:44:19.223Z,100.00
2019-01-11T15:46:47.628Z,100.00
2019-01-11T15:49:16.082Z,100.00
2019-01-11T15:51:44.466Z,100.00
2019-01-11T15:54:12.849Z,100.00
2019-01-11T15:56:41.235Z,100.00
2019-01-11T15:59:09.637Z,100.00
2019-01-11T16:01:38.024Z,100.00
2019-01-11T16:04:09.345Z,100.00
2019-01-11T16:06:37.791Z,100.00
2019-01-11T16:09:27.047Z,100.00
2019-01-11T16:12:06.856Z,100.00
2019-01-11T16:14:56.495Z,100.00
2019-01-11T16:17:28.063Z,100.00
2019-01-11T16:19:58.421Z,100.00
2019-01-11T16:22:26.807Z,100.00
2019-01-11T16:24:57.263Z,100.00
2019-01-11T16:27:27.686Z,100.00
2019-01-11T16:29:57.043Z,100.00
2019-01-11T16:32:25.483Z,100.00
2019-01-11T16:34:53.867Z,100.00
2019-01-11T16:37:22.255Z,100.00
2019-01-11T16:39:52.577Z,100.00
2019-01-11T16:42:24.198Z,100.00
2019-01-11T16:44:52.631Z,100.00
2019-01-11T16:47:21.122Z,100.00
2019-01-11T16:49:49.503Z,100.00
2019-01-11T16:52:18.133Z,100.00
2019-01-11T16:54:46.520Z,100.00
2019-01-11T16:57:14.909Z,100.00
2019-01-11T16:59:43.302Z,100.00
2019-01-11T17:02:11.701Z,100.00
2019-01-11T17:04:40.314Z,100.00
2019-01-11T17:07:11.823Z,100.00
2019-01-11T17:09:40.217Z,100.00
2019-01-11T17:12:08.629Z,100.00
2019-01-11T17:14:37.019Z,100.00
2019-01-11T17:17:05.395Z,100.00
2019-01-11T17:19:33.801Z,100.00
2019-01-11T17:22:02.196Z,100.00
2019-01-11T17:24:30.590Z,100.00
2019-01-11T17:27:00.882Z,100.00
2019-01-11T17:29:29.288Z,100.00
2019-01-11T17:31:57.943Z,100.00
2019-01-11T17:34:26.941Z,100.00
2019-01-11T17:36:55.576Z,100.00
2019-01-11T17:39:23.968Z,100.00
2019-01-11T17:41:52.405Z,100.00
2019-01-11T17:44:21.703Z,100.00
2019-01-11T17:46:50.123Z,100.00
2019-01-11T17:49:18.512Z,100.00
2019-01-11T17:51:51.964Z,100.00
2019-01-11T17:54:20.353Z,100.00
2019-01-11T17:56:49.831Z,100.00
2019-01-11T17:59:25.277Z,100.00
2019-01-11T18:01:53.679Z,100.00
2019-01-11T18:04:22.094Z,100.00
2019-01-11T18:06:50.542Z,100.00
2019-01-11T18:09:18.922Z,100.00
2019-01-11T18:11:48.281Z,100.00
2019-01-11T18:14:16.686Z,100.00
2019-01-11T18:16:45.083Z,100.00
2019-01-11T18:19:13.479Z,100.00
2019-01-11T18:21:41.871Z,100.00
2019-01-11T18:24:10.320Z,100.00
2019-01-11T18:26:38.700Z,100.00
2019-01-11T18:29:08.090Z,100.00
2019-01-11T18:31:37.483Z,100.00
2019-01-11T18:34:06.789Z,100.00
2019-01-11T18:36:35.185Z,100.00
2019-01-11T18:39:05.094Z,100.00
2019-01-11T18:41:34.471Z,100.00
2019-01-11T18:44:02.937Z,100.00
2019-01-11T18:46:32.340Z,100.00
2019-01-11T18:49:01.662Z,100.00
2019-01-11T18:51:30.044Z,100.00
2019-01-11T18:53:58.433Z,100.00
2019-01-11T18:56:26.836Z,100.00
2019-01-11T18:58:55.217Z,100.00
2019-01-11T19:01:23.604Z,100.00
2019-01-11T19:03:51.984Z,100.00
2019-01-11T19:06:20.392Z,100.00
2019-01-11T19:08:48.787Z,100.00
2019-01-11T19:11:17.196Z,100.00
2019-01-11T19:13:51.498Z,100.00
2019-01-11T19:16:20.146Z,100.00
2019-01-11T19:18:48.693Z,100.00
2019-01-11T19:21:25.034Z,100.00
2019-01-11T19:23:53.427Z,100.00
2019-01-11T19:26:23.985Z,100.00
2019-01-11T19:28:52.374Z,100.00
2019-01-11T19:31:21.706Z,100.00
2019-01-11T19:33:50.141Z,100.00
2019-01-11T19:36:20.520Z,100.00
2019-01-11T19:38:48.966Z,100.00
2019-01-11T19:41:17.354Z,100.00
2019-01-11T19:43:45.768Z,100.00
2019-01-11T19:46:19.882Z,100.00
2019-01-11T19:48:54.302Z,100.00
2019-01-11T19:51:24.612Z,100.00
2019-01-11T19:53:54.951Z,100.00
2019-01-11T19:56:23.354Z,100.00
2019-01-11T19:58:52.721Z,100.00
2019-01-11T20:01:21.158Z,100.00
2019-01-11T20:03:49.574Z,100.00
2019-01-11T20:06:17.960Z,100.00
2019-01-11T20:08:49.614Z,100.00
2019-01-11T20:11:17.967Z,100.00
2019-01-11T20:13:46.360Z,100.00
2019-01-11T20:16:14.786Z,100.00
2019-01-11T20:18:43.152Z,100.00
2019-01-11T20:21:11.603Z,100.00
2019-01-11T20:23:40.195Z,100.00
2019-01-11T20:26:08.669Z,100.00
2019-01-11T20:28:37.169Z,100.00
2019-01-11T20:31:05.620Z,100.00
2019-01-11T20:33:34.042Z,100.00
2019-01-11T20:36:03.893Z,100.00
2019-01-11T20:38:32.284Z,100.00
2019-01-11T20:41:01.605Z,100.00
2019-01-11T20:43:29.988Z,100.00
2019-01-11T20:46:03.343Z,100.00
2019-01-11T20:48:31.942Z,100.00
2019-01-11T20:51:00.347Z,100.00
2019-01-11T20:53:28.803Z,100.00
2019-01-11T20:55:57.189Z,100.00
2019-01-11T20:58:25.576Z,100.00
2019-01-11T21:00:54.121Z,100.00
2019-01-11T21:03:22.504Z,100.00
2019-01-11T21:05:50.977Z,100.00
2019-01-11T21:08:19.357Z,100.00
2019-01-11T21:10:48.933Z,100.00
2019-01-11T21:13:17.323Z,100.00
2019-01-11T21:15:45.770Z,100.00
2019-01-11T21:18:14.151Z,100.00
2019-01-11T21:20:42.536Z,100.00
2019-01-11T21:23:10.955Z,100.00
2019-01-11T21:25:39.414Z,100.00
2019-01-11T21:28:07.819Z,100.00
2019-01-11T21:30:38.715Z,100.00
2019-01-11T21:33:07.092Z,100.00
2019-01-11T21:35:35.566Z,100.00
2019-01-11T21:38:04.037Z,100.00
2019-01-11T21:40:32.425Z,100.00
2019-01-11T21:43:00.808Z,100.00
2019-01-11T21:45:29.270Z,100.00
2019-01-11T21:47:57.658Z,100.00
2019-01-11T21:50:26.552Z,100.00
2019-01-11T21:52:54.933Z,100.00
2019-01-11T21:55:23.662Z,100.00
2019-01-11T21:57:52.186Z,100.00
2019-01-11T22:00:32.238Z,100.00
2019-01-11T22:03:00.687Z,100.00
2019-01-11T22:05:29.147Z,100.00
2019-01-11T22:07:57.528Z,100.00
2019-01-11T22:10:25.985Z,100.00
2019-01-11T22:12:54.438Z,100.00
2019-01-11T22:15:22.907Z,100.00
2019-01-11T22:17:51.350Z,100.00
2019-01-11T22:20:19.914Z,100.00
2019-01-11T22:22:48.369Z,100.00
2019-01-11T22:25:18.268Z,100.00
2019-01-11T22:27:46.712Z,100.00
2019-01-11T22:30:17.689Z,100.00
2019-01-11T22:32:46.080Z,100.00
2019-01-11T22:35:14.534Z,100.00
2019-01-11T22:37:42.931Z,100.00
2019-01-11T22:40:13.954Z,100.00
2019-01-11T22:42:42.350Z,100.00
2019-01-11T22:45:13.069Z,100.00
2019-01-11T22:47:41.615Z,100.00
2019-01-11T22:50:12.246Z,100.00
2019-01-11T22:52:40.872Z,100.00
2019-01-11T22:55:11.870Z,100.00
2019-01-11T22:57:40.412Z,100.00
2019-01-11T23:00:14.501Z,100.00
2019-01-11T23:02:43.224Z,100.00
2019-01-11T23:05:11.847Z,100.00
2019-01-11T23:07:40.234Z,100.00
2019-01-11T23:10:14.491Z,100.00
2019-01-11T23:12:45.073Z,100.00
2019-01-11T23:15:16.707Z,100.00
2019-01-11T23:17:48.430Z,100.00
2019-01-11T23:20:16.843Z,100.00
2019-01-11T23:22:45.199Z,100.00
2019-01-11T23:25:13.585Z,100.00
2019-01-11T23:27:42.210Z,100.00
2019-01-11T23:30:13.813Z,100.00
2019-01-11T23:32:42.193Z,100.00
2019-01-11T23:35:10.921Z,100.00
2019-01-11T23:37:39.317Z,100.00
2019-01-11T23:40:10.936Z,100.00
2019-01-11T23:42:39.394Z,100.00
2019-01-11T23:45:10.619Z,100.00
2019-01-11T23:47:39.014Z,100.00
2019-01-11T23:50:10.604Z,100.00
2019-01-11T23:52:38.997Z,100.00
2019-01-11T23:55:08.820Z,100.00
2019-01-11T23:57:37.210Z,100.00
